Terminal Aerodrome Forecast
Issued by NWS Cleveland, OH

Home | Current Version | Previous Version | Text Only | Print | Product List | Glossary Off
Versions: 1 2 3 4 5 6 7 8 9 10 11 12 13 14 15 16 17 18 19

000
FTUS41 KCLE 150545
TAFTOL
TAF
KTOL 150545Z 1506/1606 13004KT P6SM OVC090
     FM151400 18010G20KT P6SM VCSH OVC090
     FM151600 18010G20KT P6SM -SHRA OVC070
     FM151800 21011KT 6SM -SHRA BR OVC025
     FM152100 21015G25KT 3SM -SHRA BR OVC007
     FM152300 23015G25KT P6SM OVC007
     FM160200 25010G20KT P6SM OVC020=

USA.gov is the U.S. government's official web portal to all federal, state and local government web resources and services.